Time;durP1;ratioP1;P1;durP2;ratioP2;P2;SDS_P1;SDS_P2;PMS_P1;PMS_P2;Temp;Humidity;BMP_temperature;BMP_pressure;BME280_temperature;BME280_humidity;BME280_pressure;Samples;Min_cycle;Max_cycle;Signal;HPM_P1;HPM_P2
2022/11/07 00:01:18;;;;;;;14.15;9.73;;;10.60;96.50;;;;;;5082347;27;20398;-80
2022/11/07 00:03:44;;;;;;;12.38;9.02;;;10.60;96.60;;;;;;5133336;27;20418;-78
2022/11/07 00:06:10;;;;;;;15.35;9.05;;;10.60;96.50;;;;;;5115003;27;20038;-79
2022/11/07 00:08:36;;;;;;;15.10;9.50;;;10.60;96.40;;;;;;5132959;27;20118;-78
2022/11/07 00:11:03;;;;;;;12.40;8.88;;;10.60;96.40;;;;;;5115913;27;20153;-79
2022/11/07 00:13:30;;;;;;;13.27;10.88;;;10.70;96.60;;;;;;5132976;27;20043;-80
2022/11/07 00:16:05;;;;;;;17.75;11.20;;;10.70;96.50;;;;;;5133075;27;20035;-78
2022/11/07 00:18:31;;;;;;;12.25;10.20;;;10.70;96.70;;;;;;5132749;27;20042;-81
2022/11/07 00:21:15;;;;;;;14.95;10.32;;;10.80;96.80;;;;;;5132717;27;20062;-77
2022/11/07 00:23:41;;;;;;;14.05;8.95;;;10.80;96.70;;;;;;5097993;27;20483;-79
2022/11/07 00:26:09;;;;;;;17.80;10.15;;;10.80;96.60;;;;;;5115788;27;20429;-78
2022/11/07 00:28:37;;;;;;;13.80;8.07;;;10.80;96.70;;;;;;5132673;27;20043;-79
2022/11/07 00:31:04;;;;;;;14.73;7.80;;;10.80;96.50;;;;;;5115547;27;20035;-79
2022/11/07 00:33:29;;;;;;;14.95;6.70;;;10.80;96.40;;;;;;5115543;27;20047;-79
2022/11/07 00:35:55;;;;;;;10.77;7.07;;;10.80;96.30;;;;;;5132692;27;20039;-78
2022/11/07 00:38:21;;;;;;;11.88;7.88;;;10.80;96.50;;;;;;5131360;27;20034;-77
2022/11/07 00:40:55;;;;;;;18.50;9.18;;;10.80;96.60;;;;;;5115481;28;20502;-78
2022/11/07 00:43:21;;;;;;;13.90;9.20;;;10.80;96.40;;;;;;5132602;28;20074;-78
2022/11/07 00:45:46;;;;;;;13.43;8.48;;;10.80;96.40;;;;;;5132808;28;20386;-77
2022/11/07 00:48:12;;;;;;;17.42;9.00;;;10.80;96.50;;;;;;5115431;28;20134;-79
2022/11/07 00:50:38;;;;;;;11.75;7.35;;;10.80;96.60;;;;;;5115402;28;20155;-77
2022/11/07 00:53:03;;;;;;;12.43;7.70;;;10.70;96.60;;;;;;5132747;28;20049;-79
2022/11/07 00:55:31;;;;;;;12.70;7.60;;;10.70;96.50;;;;;;5097560;28;20043;-80
2022/11/07 00:57:57;;;;;;;13.25;8.32;;;10.70;96.30;;;;;;5115242;28;20088;-78
2022/11/07 01:00:22;;;;;;;12.50;5.70;;;10.80;96.10;;;;;;5098393;28;20436;-79
2022/11/07 01:05:09;;;;;;;12.20;6.35;;;10.80;96.10;;;;;;5081709;28;20503;-79
2022/11/07 01:05:34;;;;;;;10.68;6.72;;;10.80;95.60;;;;;;5132505;28;20044;-80
2022/11/07 01:07:59;;;;;;;17.10;8.18;;;10.90;95.70;;;;;;5098250;28;20046;-79
2022/11/07 01:10:25;;;;;;;12.55;7.55;;;11.00;95.80;;;;;;5131366;28;20042;-79
2022/11/07 01:12:51;;;;;;;14.63;7.75;;;10.90;95.80;;;;;;5132342;28;20129;-78
2022/11/07 01:15:17;;;;;;;15.38;8.23;;;11.00;95.90;;;;;;5115181;28;20052;-78
2022/11/07 01:17:42;;;;;;;14.60;7.20;;;10.90;96.10;;;;;;5115403;28;20046;-79
2022/11/07 01:20:09;;;;;;;13.32;7.25;;;10.90;96.20;;;;;;5114921;28;20136;-78
2022/11/07 01:22:34;;;;;;;11.48;6.93;;;10.90;96.20;;;;;;5115529;28;20390;-80
2022/11/07 01:25:00;;;;;;;17.15;8.13;;;10.90;96.40;;;;;;5098169;28;20031;-79
2022/11/07 01:27:26;;;;;;;14.25;7.70;;;10.90;96.30;;;;;;5130808;28;20039;-79
2022/11/07 01:29:51;;;;;;;16.02;7.85;;;11.00;96.20;;;;;;5097982;28;20043;-79
2022/11/07 01:32:17;;;;;;;10.75;6.32;;;10.90;96.30;;;;;;5098149;28;20039;-80
2022/11/07 01:34:43;;;;;;;13.88;7.05;;;10.90;96.30;;;;;;5098141;28;20118;-80
2022/11/07 01:37:08;;;;;;;19.63;7.32;;;10.90;96.10;;;;;;5132000;28;20039;-79
2022/11/07 01:39:34;;;;;;;12.10;6.22;;;10.90;96.00;;;;;;5132130;28;20546;-80
2022/11/07 01:42:00;;;;;;;16.20;5.93;;;10.80;96.00;;;;;;5098036;28;20035;-78
2022/11/07 01:44:26;;;;;;;13.52;6.28;;;10.80;96.00;;;;;;5096997;28;20286;-79
2022/11/07 01:46:56;;;;;;;11.18;6.25;;;10.80;95.90;;;;;;5131998;28;20043;-79
2022/11/07 01:49:29;;;;;;;11.43;5.75;;;10.80;95.90;;;;;;5132039;28;20039;-78
2022/11/07 01:52:13;;;;;;;6.53;3.83;;;10.80;95.90;;;;;;5117214;27;20043;-78
2022/11/07 01:55:08;;;;;;;11.05;4.45;;;10.80;95.90;;;;;;5118790;27;20364;-79
2022/11/07 01:57:55;;;;;;;13.57;5.18;;;10.70;95.80;;;;;;5109336;27;20534;-78
2022/11/07 02:00:22;;;;;;;12.88;4.60;;;10.70;95.90;;;;;;5117750;27;20113;-79
2022/11/07 02:02:51;;;;;;;12.65;5.40;;;10.70;96.00;;;;;;5135465;27;20039;-79
2022/11/07 02:05:23;;;;;;;11.38;5.82;;;10.70;96.20;;;;;;5118653;27;20394;-78
2022/11/07 02:07:49;;;;;;;14.23;6.63;;;10.80;96.40;;;;;;5118264;27;20117;-78
2022/11/07 02:10:15;;;;;;;13.48;6.53;;;10.80;96.20;;;;;;5101509;27;20088;-79
2022/11/07 02:12:42;;;;;;;16.30;5.20;;;10.80;96.40;;;;;;5135592;27;20458;-78
2022/11/07 02:15:09;;;;;;;7.63;5.47;;;10.80;96.50;;;;;;5135289;27;20108;-78
2022/11/07 02:17:35;;;;;;;10.63;4.53;;;10.80;96.60;;;;;;5117340;27;20066;-78
2022/11/07 02:20:00;;;;;;;10.38;4.97;;;10.80;96.50;;;;;;5117947;27;20479;-80
2022/11/07 02:22:45;;;;;;;9.43;4.60;;;10.90;96.30;;;;;;5084174;27;20395;-78
2022/11/07 02:25:14;;;;;;;10.93;5.25;;;10.90;96.40;;;;;;5135113;27;20035;-80
2022/11/07 02:27:41;;;;;;;10.85;4.53;;;10.80;96.40;;;;;;5133584;27;20895;-78
2022/11/07 02:30:13;;;;;;;12.55;5.35;;;10.80;96.50;;;;;;5134943;27;20039;-78
2022/11/07 02:32:39;;;;;;;13.50;5.35;;;10.80;96.30;;;;;;5135203;27;20041;-78
2022/11/07 02:35:41;;;;;;;7.68;3.92;;;10.80;96.40;;;;;;5100678;27;20035;-78
2022/11/07 02:38:19;;;;;;;13.20;5.78;;;10.90;96.40;;;;;;5117540;27;20067;-79
2022/11/07 02:40:50;;;;;;;12.20;4.88;;;10.90;96.30;;;;;;5117921;27;20043;-82
2022/11/07 02:43:19;;;;;;;13.23;4.07;;;10.90;96.30;;;;;;5134808;27;20043;-80
2022/11/07 02:45:46;;;;;;;17.38;5.60;;;10.90;96.20;;;;;;5116860;27;20045;-79
2022/11/07 02:48:12;;;;;;;14.00;5.05;;;10.90;96.00;;;;;;5134837;27;20493;-78
2022/11/07 02:50:39;;;;;;;9.20;3.40;;;10.80;96.00;;;;;;5117284;27;20046;-78
2022/11/07 02:53:04;;;;;;;8.88;3.47;;;10.80;96.10;;;;;;5117704;27;20031;-78
2022/11/07 02:55:30;;;;;;;16.13;4.57;;;10.90;96.00;;;;;;5100386;27;20393;-78
2022/11/07 02:57:55;;;;;;;10.27;3.90;;;10.80;96.00;;;;;;5100644;27;20379;-77
2022/11/07 03:00:21;;;;;;;14.85;5.57;;;10.80;96.30;;;;;;5133798;27;20454;-79
2022/11/07 03:02:47;;;;;;;11.20;4.40;;;10.90;96.50;;;;;;5116821;27;20483;-80
2022/11/07 03:05:18;;;;;;;14.52;4.90;;;10.80;96.50;;;;;;5117506;27;20455;-80
2022/11/07 03:07:46;;;;;;;8.75;3.70;;;10.90;96.70;;;;;;5117078;27;20038;-78
2022/11/07 03:10:13;;;;;;;13.88;4.32;;;10.90;96.30;;;;;;5134150;27;20043;-78
2022/11/07 03:12:38;;;;;;;11.90;4.38;;;11.00;96.20;;;;;;5134168;27;20039;-79
2022/11/07 03:15:06;;;;;;;11.15;4.00;;;11.00;96.20;;;;;;5115670;27;20043;-79
2022/11/07 03:17:32;;;;;;;13.75;4.88;;;11.00;96.20;;;;;;5133972;27;20099;-78
2022/11/07 03:19:58;;;;;;;12.57;3.80;;;10.90;96.30;;;;;;5099627;27;20043;-80
2022/11/07 03:22:24;;;;;;;10.88;4.50;;;11.00;96.10;;;;;;5116817;27;20122;-79
2022/11/07 03:24:50;;;;;;;15.45;4.07;;;11.00;96.20;;;;;;5116936;27;20478;-79
2022/11/07 03:27:15;;;;;;;17.98;3.75;;;11.00;96.20;;;;;;5116625;27;20043;-79
2022/11/07 03:29:41;;;;;;;19.20;4.55;;;11.00;96.00;;;;;;5082835;27;20046;-81
2022/11/07 03:32:07;;;;;;;9.52;3.83;;;10.90;96.10;;;;;;5115744;27;20045;-79
2022/11/07 03:34:33;;;;;;;11.95;3.22;;;11.00;96.00;;;;;;5116464;27;20087;-78
2022/11/07 03:36:58;;;;;;;10.90;3.28;;;10.90;96.00;;;;;;5116660;27;20053;-78
2022/11/07 03:39:24;;;;;;;7.88;2.42;;;10.90;96.00;;;;;;5082753;27;20039;-78
2022/11/07 03:41:50;;;;;;;11.70;3.40;;;10.90;96.00;;;;;;5099506;27;20035;-79
2022/11/07 03:44:16;;;;;;;14.63;4.07;;;10.90;96.00;;;;;;5099490;27;20031;-79
2022/11/07 03:46:41;;;;;;;10.65;2.65;;;10.80;95.90;;;;;;5133475;27;20042;-80
2022/11/07 03:49:07;;;;;;;8.32;2.67;;;10.90;96.20;;;;;;5132710;27;20126;-80
2022/11/07 03:51:33;;;;;;;18.20;3.60;;;10.80;96.20;;;;;;5133449;27;20035;-79
2022/11/07 03:53:59;;;;;;;19.92;4.55;;;10.80;96.30;;;;;;5116211;27;20035;-78
2022/11/07 03:56:24;;;;;;;13.82;5.50;;;10.80;96.20;;;;;;5116030;27;20043;-81
2022/11/07 03:58:50;;;;;;;13.88;4.10;;;10.70;96.40;;;;;;5133152;27;20062;-79
2022/11/07 04:01:16;;;;;;;15.27;3.90;;;10.70;96.40;;;;;;5133282;27;20043;-80
2022/11/07 04:03:41;;;;;;;11.32;4.00;;;10.70;96.40;;;;;;5116036;27;20066;-80
2022/11/07 04:06:07;;;;;;;13.77;4.25;;;10.70;96.50;;;;;;5114746;27;20085;-78
2022/11/07 04:08:33;;;;;;;14.48;4.50;;;10.60;96.70;;;;;;5115961;27;20039;-78
2022/11/07 04:10:58;;;;;;;19.55;5.78;;;10.70;96.90;;;;;;5116027;27;20039;-78
2022/11/07 04:18:55;;;;;;;11.82;4.40;;;10.80;97.20;;;;;;5118368;27;20039;-79
2022/11/07 04:21:21;;;;;;;15.65;5.07;;;10.80;97.10;;;;;;5115662;27;20051;-80
2022/11/07 04:23:46;;;;;;;15.15;5.63;;;10.90;97.20;;;;;;5098057;27;20038;-80
2022/11/07 04:28:56;;;;;;;25.48;5.30;;;10.80;97.10;;;;;;5132903;27;20452;-81
2022/11/07 04:31:22;;;;;;;9.13;4.30;;;10.90;97.00;;;;;;5098800;27;20050;-79
2022/11/07 04:33:47;;;;;;;12.60;4.28;;;10.90;97.00;;;;;;5132708;27;20372;-78
2022/11/07 04:36:13;;;;;;;16.98;4.63;;;11.00;96.50;;;;;;5132769;27;20043;-78
2022/11/07 04:38:39;;;;;;;15.45;4.30;;;11.00;96.80;;;;;;5115844;28;20209;-80
2022/11/07 04:41:05;;;;;;;13.65;4.07;;;10.90;96.90;;;;;;5131599;28;20037;-79
2022/11/07 04:43:30;;;;;;;17.65;4.70;;;10.90;97.10;;;;;;5115520;28;20046;-79
2022/11/07 04:45:56;;;;;;;18.83;5.63;;;10.90;97.00;;;;;;5115555;28;20031;-81
2022/11/07 04:48:22;;;;;;;11.88;5.32;;;10.90;97.00;;;;;;5131418;28;20055;-79
2022/11/07 04:50:48;;;;;;;15.30;4.82;;;10.80;97.00;;;;;;5098590;28;20043;-80
2022/11/07 04:53:15;;;;;;;15.57;5.13;;;10.90;96.90;;;;;;5098535;28;20130;-80
2022/11/07 04:55:42;;;;;;;16.00;5.35;;;10.80;96.80;;;;;;5115245;28;20487;-80
2022/11/07 04:58:08;;;;;;;10.98;4.10;;;10.70;96.80;;;;;;5132511;28;20027;-78
2022/11/07 05:00:34;;;;;;;10.93;4.07;;;10.70;96.90;;;;;;5081963;28;20031;-81
2022/11/07 05:02:59;;;;;;;13.80;4.97;;;10.70;96.80;;;;;;5111884;28;20479;-80
2022/11/07 05:05:25;;;;;;;11.20;3.92;;;10.70;96.60;;;;;;5111974;28;20483;-79
2022/11/07 05:07:51;;;;;;;11.55;4.75;;;10.70;96.60;;;;;;5094783;28;20395;-79
2022/11/07 05:10:22;;;;;;;13.05;4.28;;;10.70;96.70;;;;;;5094877;28;20032;-80
2022/11/07 05:12:48;;;;;;;16.65;4.93;;;10.60;96.70;;;;;;5111839;28;20081;-79
2022/11/07 05:15:15;;;;;;;12.27;3.50;;;10.70;96.70;;;;;;5094883;28;20116;-79
2022/11/07 05:17:40;;;;;;;11.57;4.10;;;10.70;96.70;;;;;;5095062;28;20118;-78
2022/11/07 05:20:07;;;;;;;11.52;4.40;;;10.70;96.70;;;;;;5092242;28;20546;-82
2022/11/07 05:25:16;;;;;;;10.68;4.57;;;10.80;96.90;;;;;;5104838;27;20299;-80
2022/11/07 05:27:42;;;;;;;11.85;4.57;;;10.80;96.90;;;;;;5136178;27;20074;-78
2022/11/07 05:30:10;;;;;;;13.38;4.20;;;10.80;96.90;;;;;;5134943;27;20077;-79
2022/11/07 05:32:40;;;;;;;15.77;4.70;;;10.80;96.90;;;;;;5136356;27;20081;-79
2022/11/07 05:35:06;;;;;;;12.75;3.95;;;10.80;96.90;;;;;;5120134;27;20054;-82
2022/11/07 05:37:31;;;;;;;10.32;3.63;;;10.80;96.70;;;;;;5118655;27;20506;-81
2022/11/07 05:39:57;;;;;;;9.27;3.63;;;10.80;96.70;;;;;;5119107;27;20046;-80
2022/11/07 05:42:23;;;;;;;16.52;3.92;;;10.70;96.50;;;;;;5135961;27;20398;-81
2022/11/07 05:44:48;;;;;;;10.55;3.33;;;10.70;96.50;;;;;;5118875;27;20051;-81
2022/11/07 05:47:14;;;;;;;15.00;4.25;;;10.70;96.50;;;;;;5117540;27;20047;-81
2022/11/07 05:49:40;;;;;;;8.27;3.38;;;10.70;96.40;;;;;;5084880;27;20053;-81
2022/11/07 05:52:05;;;;;;;10.55;3.20;;;10.70;96.40;;;;;;5135763;27;20046;-82
2022/11/07 05:54:32;;;;;;;12.38;4.78;;;10.70;96.60;;;;;;5118586;27;20039;-81
2022/11/07 05:56:58;;;;;;;10.23;3.53;;;10.70;96.60;;;;;;5101643;27;20530;-82
2022/11/07 05:59:24;;;;;;;11.32;4.47;;;10.70;96.60;;;;;;5118517;27;20070;-81
2022/11/07 06:01:51;;;;;;;13.65;4.72;;;10.70;96.50;;;;;;5135580;27;20031;-84
2022/11/07 06:04:17;;;;;;;6.78;3.40;;;10.70;96.50;;;;;;5117890;27;20057;-80
2022/11/07 06:06:43;;;;;;;10.70;3.85;;;10.70;96.40;;;;;;5118462;27;20432;-81
2022/11/07 06:09:08;;;;;;;6.72;3.10;;;10.70;96.40;;;;;;5101292;27;20548;-80
2022/11/07 06:11:34;;;;;;;7.43;3.20;;;10.80;96.40;;;;;;5101576;27;20043;-80
2022/11/07 06:14:00;;;;;;;8.98;3.83;;;10.80;96.30;;;;;;5118484;27;20084;-79
2022/11/07 06:16:26;;;;;;;7.72;3.55;;;10.80;96.30;;;;;;5118084;27;20390;-82
2022/11/07 06:18:52;;;;;;;7.30;2.70;;;10.80;96.30;;;;;;5118345;27;20122;-81
2022/11/07 06:21:18;;;;;;;8.18;3.60;;;11.00;96.20;;;;;;5116830;27;20587;-80
2022/11/07 06:23:43;;;;;;;4.75;2.67;;;10.90;96.20;;;;;;5118003;27;20038;-80
2022/11/07 06:26:10;;;;;;;14.02;4.03;;;11.00;96.10;;;;;;5084432;27;20042;-81
2022/11/07 06:28:35;;;;;;;10.10;4.80;;;11.00;96.20;;;;;;5117850;27;20047;-80
2022/11/07 06:31:02;;;;;;;9.18;4.47;;;11.00;96.20;;;;;;5118186;27;20050;-81
2022/11/07 06:33:31;;;;;;;10.82;5.55;;;11.00;96.10;;;;;;5134963;27;20043;-79
2022/11/07 06:36:05;;;;;;;10.88;5.53;;;11.00;96.30;;;;;;5100854;27;20039;-80
2022/11/07 06:38:30;;;;;;;15.45;7.97;;;11.00;96.20;;;;;;5116446;27;20037;-79
2022/11/07 06:41:06;;;;;;;13.52;5.20;;;11.00;96.40;;;;;;5117934;27;20157;-81
2022/11/07 06:43:32;;;;;;;10.68;4.95;;;11.00;96.60;;;;;;5117877;27;20127;-80
2022/11/07 06:46:05;;;;;;;13.75;5.72;;;11.00;96.50;;;;;;5117574;27;20043;-81
2022/11/07 06:48:32;;;;;;;13.90;6.03;;;11.00;96.50;;;;;;5115447;27;20482;-78
2022/11/07 06:51:00;;;;;;;17.15;6.85;;;11.00;96.60;;;;;;5134631;27;20039;-79
2022/11/07 06:53:26;;;;;;;22.02;7.68;;;11.00;96.80;;;;;;5134548;27;20096;-80
2022/11/07 06:55:53;;;;;;;13.35;6.75;;;11.00;96.80;;;;;;5083611;27;20117;-79
2022/11/07 06:58:18;;;;;;;13.45;6.00;;;10.90;97.10;;;;;;5117098;27;20553;-80
2022/11/07 07:00:44;;;;;;;13.05;5.78;;;11.00;97.10;;;;;;5134415;27;20031;-79
2022/11/07 07:03:11;;;;;;;17.10;6.80;;;10.90;97.10;;;;;;5133154;27;20510;-79
2022/11/07 07:05:37;;;;;;;16.70;6.70;;;10.90;97.30;;;;;;5134569;27;20043;-80
2022/11/07 07:08:04;;;;;;;16.77;6.75;;;10.90;97.20;;;;;;5083204;27;20054;-80
2022/11/07 07:10:30;;;;;;;15.82;6.63;;;10.90;97.10;;;;;;5117586;27;20042;-80
2022/11/07 07:12:56;;;;;;;15.90;6.57;;;10.90;97.30;;;;;;5100111;27;20429;-80
2022/11/07 07:15:22;;;;;;;15.25;6.25;;;10.90;97.40;;;;;;5099812;27;20043;-81
2022/11/07 07:17:48;;;;;;;14.13;5.50;;;10.90;97.30;;;;;;5100487;27;20379;-81
2022/11/07 07:20:13;;;;;;;15.85;6.60;;;10.90;97.30;;;;;;5098498;27;20031;-81
2022/11/07 07:22:39;;;;;;;12.82;5.40;;;10.90;97.30;;;;;;5099893;27;20047;-80
2022/11/07 07:25:06;;;;;;;15.88;5.20;;;10.90;97.30;;;;;;5099863;27;20042;-81
2022/11/07 07:27:31;;;;;;;16.80;5.85;;;10.90;97.20;;;;;;5099969;27;20062;-81
2022/11/07 07:29:57;;;;;;;10.63;5.05;;;11.00;97.30;;;;;;5099509;27;20475;-81
2022/11/07 07:32:25;;;;;;;15.77;5.90;;;11.00;97.40;;;;;;5116558;27;20043;-81
2022/11/07 07:34:51;;;;;;;16.65;6.00;;;11.00;97.40;;;;;;5083511;27;20126;-80
2022/11/07 07:37:17;;;;;;;16.77;5.82;;;11.00;97.60;;;;;;5098313;27;20147;-80
2022/11/07 07:39:43;;;;;;;16.58;5.18;;;11.00;97.50;;;;;;5116376;27;20034;-80
2022/11/07 07:42:08;;;;;;;15.52;5.80;;;11.00;97.60;;;;;;5097886;27;20453;-79
2022/11/07 07:44:35;;;;;;;18.17;6.78;;;11.00;97.50;;;;;;5133456;27;20042;-80
2022/11/07 07:47:01;;;;;;;18.40;6.78;;;11.00;97.60;;;;;;5099449;27;20096;-80
2022/11/07 07:49:26;;;;;;;17.85;6.68;;;11.00;97.50;;;;;;5099440;27;20035;-80
2022/11/07 07:51:52;;;;;;;18.42;7.22;;;11.00;97.70;;;;;;5133354;27;20407;-81
2022/11/07 07:54:18;;;;;;;16.15;6.43;;;11.00;97.60;;;;;;5133272;27;20475;-78
2022/11/07 07:56:43;;;;;;;20.02;7.00;;;11.00;97.60;;;;;;5109008;27;20040;-82
2022/11/07 07:59:09;;;;;;;13.82;6.38;;;11.00;97.70;;;;;;5094857;28;20092;-80
2022/11/07 08:01:34;;;;;;;15.15;5.32;;;11.00;97.70;;;;;;5095646;28;20043;-80
2022/11/07 08:04:00;;;;;;;14.88;5.70;;;11.00;97.80;;;;;;5078599;28;20100;-80
2022/11/07 08:06:26;;;;;;;14.82;5.70;;;11.10;97.50;;;;;;5095528;28;20070;-79
2022/11/07 08:08:51;;;;;;;22.63;7.22;;;11.10;97.50;;;;;;5122962;27;20074;-79
2022/11/07 08:11:17;;;;;;;16.73;6.80;;;11.10;97.50;;;;;;5099040;27;20046;-80
2022/11/07 08:13:42;;;;;;;16.38;5.00;;;11.10;97.40;;;;;;5115151;27;20031;-80
2022/11/07 08:16:09;;;;;;;17.23;6.95;;;11.10;97.40;;;;;;5116037;27;20092;-79
2022/11/07 08:18:38;;;;;;;18.17;5.82;;;11.20;97.40;;;;;;5132855;27;20071;-79
2022/11/07 08:21:04;;;;;;;21.23;6.22;;;11.20;97.40;;;;;;5115632;27;20105;-79
2022/11/07 08:23:30;;;;;;;21.00;6.50;;;11.20;97.40;;;;;;5116305;27;20417;-80
2022/11/07 08:25:58;;;;;;;18.77;6.72;;;11.20;97.40;;;;;;5115687;27;20034;-79
2022/11/07 08:28:26;;;;;;;18.13;6.55;;;11.20;97.50;;;;;;5115722;27;20031;-77
2022/11/07 08:31:04;;;;;;;18.45;6.25;;;11.20;97.50;;;;;;5131747;27;20395;-80
2022/11/07 08:33:30;;;;;;;18.77;6.15;;;11.30;97.40;;;;;;5132615;27;20131;-79
2022/11/07 08:35:59;;;;;;;28.23;7.47;;;11.20;97.40;;;;;;5132836;27;20126;-79
2022/11/07 08:38:25;;;;;;;21.45;6.65;;;11.30;97.30;;;;;;5115531;28;20042;-79
2022/11/07 08:40:52;;;;;;;22.45;6.70;;;11.30;97.40;;;;;;5132578;28;20075;-80
2022/11/07 08:43:18;;;;;;;20.50;6.93;;;11.30;97.30;;;;;;5111680;28;20043;-80
2022/11/07 08:45:46;;;;;;;18.77;6.85;;;11.30;97.30;;;;;;5105113;28;20043;-81
2022/11/07 08:48:12;;;;;;;24.85;8.57;;;11.30;97.30;;;;;;5095211;28;20043;-79
2022/11/07 08:50:38;;;;;;;22.10;8.02;;;11.30;97.40;;;;;;5112698;28;20422;-80
2022/11/07 08:53:03;;;;;;;18.92;6.43;;;11.30;97.30;;;;;;5102198;28;20042;-80
2022/11/07 08:55:29;;;;;;;24.33;7.13;;;11.30;97.20;;;;;;5115374;28;20092;-79
2022/11/07 08:58:03;;;;;;;17.05;7.32;;;11.40;97.10;;;;;;5115554;28;20035;-79
2022/11/07 09:00:30;;;;;;;20.85;7.75;;;11.40;97.20;;;;;;5133400;27;20051;-79
2022/11/07 09:02:59;;;;;;;23.75;7.63;;;11.30;97.20;;;;;;5119607;27;20038;-79
2022/11/07 09:05:25;;;;;;;19.05;7.07;;;11.30;97.20;;;;;;5136502;27;20148;-79
2022/11/07 09:07:50;;;;;;;19.00;6.80;;;11.30;97.10;;;;;;5119301;27;20074;-81
2022/11/07 09:10:16;;;;;;;22.08;7.07;;;11.40;97.00;;;;;;5136459;27;20123;-81
2022/11/07 09:12:49;;;;;;;19.70;6.78;;;11.40;96.80;;;;;;5136975;27;20039;-79
2022/11/07 09:15:16;;;;;;;19.50;6.05;;;11.50;96.80;;;;;;5119341;27;20071;-81
2022/11/07 09:17:42;;;;;;;21.85;7.90;;;11.50;96.70;;;;;;5135032;27;20043;-81
2022/11/07 09:20:08;;;;;;;17.40;5.90;;;11.50;96.60;;;;;;5085941;27;20034;-80
2022/11/07 09:22:35;;;;;;;16.42;5.63;;;11.50;96.40;;;;;;5136058;27;20059;-82
2022/11/07 09:25:00;;;;;;;16.65;5.50;;;11.60;96.40;;;;;;5124094;27;20039;-80
2022/11/07 09:27:26;;;;;;;16.33;6.28;;;11.60;96.50;;;;;;5085590;27;20041;-79
2022/11/07 09:29:52;;;;;;;14.18;5.50;;;11.50;96.50;;;;;;5104121;27;20043;-79
2022/11/07 09:32:17;;;;;;;22.20;6.88;;;11.60;96.50;;;;;;5117947;27;20534;-79
2022/11/07 09:34:44;;;;;;;19.50;5.75;;;11.60;96.50;;;;;;5136173;27;20038;-79
2022/11/07 09:37:10;;;;;;;19.55;6.70;;;11.60;96.60;;;;;;5119025;27;20039;-81
2022/11/07 09:39:36;;;;;;;19.75;5.30;;;11.50;96.60;;;;;;5136015;27;20096;-79
2022/11/07 09:42:18;;;;;;;19.63;7.43;;;11.60;96.60;;;;;;5118874;27;20035;-81
2022/11/07 09:44:59;;;;;;;13.63;6.03;;;11.60;96.50;;;;;;5135915;27;20039;-82
2022/11/07 09:47:42;;;;;;;16.17;5.22;;;11.70;96.50;;;;;;5135650;27;20047;-80
2022/11/07 09:50:29;;;;;;;19.73;6.72;;;11.70;96.40;;;;;;5134513;27;20049;-80
2022/11/07 09:53:01;;;;;;;11.40;4.93;;;11.80;96.30;;;;;;5118558;27;20049;-80
2022/11/07 09:55:34;;;;;;;12.35;5.50;;;11.80;96.40;;;;;;5118503;27;20088;-80
2022/11/07 09:58:05;;;;;;;16.63;6.93;;;11.80;96.30;;;;;;5118700;27;20296;-79
2022/11/07 10:00:32;;;;;;;21.67;6.10;;;11.80;96.30;;;;;;5135926;27;20391;-80
2022/11/07 10:03:00;;;;;;;13.60;6.18;;;11.80;96.30;;;;;;5119015;27;20429;-80
2022/11/07 10:05:49;;;;;;;12.68;5.78;;;11.90;96.40;;;;;;5134407;27;20364;-81
2022/11/07 10:08:17;;;;;;;16.73;5.57;;;11.90;96.30;;;;;;5118273;27;20084;-78
2022/11/07 10:10:58;;;;;;;17.27;6.28;;;11.90;96.30;;;;;;5116604;27;20126;-80
2022/11/07 10:13:42;;;;;;;17.67;6.50;;;11.90;96.20;;;;;;5116524;27;20416;-81
2022/11/07 10:16:29;;;;;;;16.88;5.35;;;11.90;96.20;;;;;;5117466;27;20492;-80
2022/11/07 10:19:07;;;;;;;12.85;4.90;;;12.00;96.20;;;;;;5135069;27;20061;-81
2022/11/07 10:22:03;;;;;;;10.52;4.90;;;12.00;95.90;;;;;;5116844;27;20086;-81
2022/11/07 10:24:54;;;;;;;12.43;4.25;;;12.10;96.00;;;;;;5135353;27;20035;-79
2022/11/07 10:27:22;;;;;;;14.60;5.32;;;12.10;95.90;;;;;;5117794;27;20039;-79
2022/11/07 10:29:53;;;;;;;14.98;5.28;;;12.20;95.60;;;;;;5135212;27;20118;-82
2022/11/07 10:33:03;;;;;;;23.02;5.68;;;12.20;95.60;;;;;;5118007;27;20046;-80
2022/11/07 10:35:36;;;;;;;10.93;5.38;;;12.20;95.70;;;;;;5038434;27;20081;-79
2022/11/07 10:38:19;;;;;;;11.73;3.92;;;12.20;95.70;;;;;;5135197;27;20039;-80
2022/11/07 10:40:46;;;;;;;9.02;4.30;;;12.30;95.70;;;;;;5134955;27;20091;-80
2022/11/07 10:43:35;;;;;;;13.68;4.38;;;12.30;95.40;;;;;;5117619;27;20594;-80
2022/11/07 10:46:02;;;;;;;16.08;5.20;;;12.40;95.40;;;;;;5117785;27;20372;-80
2022/11/07 10:48:28;;;;;;;13.75;5.00;;;12.30;95.20;;;;;;5117693;27;20489;-81
2022/11/07 10:50:55;;;;;;;15.35;4.68;;;12.30;95.10;;;;;;5116857;27;20474;-80
2022/11/07 10:53:22;;;;;;;14.65;5.00;;;12.40;95.30;;;;;;5114244;27;20047;-79
2022/11/07 10:55:50;;;;;;;16.60;5.25;;;12.40;95.30;;;;;;5109330;27;20039;-82
2022/11/07 10:58:25;;;;;;;16.75;5.15;;;12.40;95.40;;;;;;5120540;27;20040;-80
2022/11/07 11:01:01;;;;;;;12.80;4.55;;;12.40;95.20;;;;;;5113885;28;20095;-81
2022/11/07 11:03:37;;;;;;;14.93;5.18;;;12.40;95.20;;;;;;5114168;28;20036;-80
2022/11/07 11:06:18;;;;;;;11.30;4.90;;;12.50;95.20;;;;;;5113647;28;20091;-81
2022/11/07 11:08:45;;;;;;;15.77;6.55;;;12.40;95.20;;;;;;5113566;28;20050;-79
2022/11/07 11:11:20;;;;;;;18.42;5.93;;;12.50;95.40;;;;;;5085216;27;20133;-82
2022/11/07 11:13:46;;;;;;;18.17;5.57;;;12.40;95.20;;;;;;5134434;27;20470;-80
2022/11/07 11:16:12;;;;;;;16.15;5.70;;;12.50;95.40;;;;;;5100360;27;20043;-81
2022/11/07 11:18:46;;;;;;;17.13;5.80;;;12.40;95.50;;;;;;5133973;27;20039;-80
2022/11/07 11:21:12;;;;;;;15.73;5.82;;;12.40;95.50;;;;;;5134000;27;20062;-80
2022/11/07 11:23:42;;;;;;;15.80;5.55;;;12.40;95.50;;;;;;5099863;27;20043;-79
2022/11/07 11:26:13;;;;;;;20.27;6.95;;;12.50;95.50;;;;;;5132484;27;20486;-79
2022/11/07 11:28:44;;;;;;;14.43;4.90;;;12.50;95.40;;;;;;5126031;27;20035;-81
2022/11/07 11:31:28;;;;;;;12.48;5.90;;;12.50;95.30;;;;;;5114392;27;20046;-81
2022/11/07 11:33:59;;;;;;;15.00;5.88;;;12.50;95.50;;;;;;5096265;28;20077;-82
2022/11/07 11:36:30;;;;;;;21.60;7.15;;;12.60;95.40;;;;;;5113235;28;20031;-80
2022/11/07 11:38:59;;;;;;;14.45;6.80;;;12.60;95.50;;;;;;5096207;28;20036;-79
2022/11/07 11:41:34;;;;;;;18.30;6.93;;;12.70;95.40;;;;;;5096305;28;20062;-78
2022/11/07 11:44:29;;;;;;;10.68;5.88;;;13.00;95.30;;;;;;5107462;27;20387;-78
2022/11/07 11:47:16;;;;;;;14.35;6.15;;;13.20;95.10;;;;;;5133295;27;20043;-80
2022/11/07 11:50:02;;;;;;;13.52;5.75;;;13.20;94.40;;;;;;5133732;27;20066;-79
2022/11/07 11:52:30;;;;;;;13.20;5.43;;;13.30;94.60;;;;;;5116500;27;20391;-81
2022/11/07 11:54:58;;;;;;;10.45;5.40;;;13.30;93.40;;;;;;5116478;27;20043;-80
2022/11/07 11:58:22;;;;;;;13.52;5.65;;;13.40;93.80;;;;;;5116016;27;20040;-79
2022/11/07 12:01:06;;;;;;;8.85;4.70;;;13.50;92.80;;;;;;5078169;27;20478;-79
2022/11/07 12:03:44;;;;;;;12.20;5.00;;;13.70;93.20;;;;;;5133536;27;20051;-78
2022/11/07 12:06:13;;;;;;;17.20;5.70;;;13.80;92.80;;;;;;5116035;27;20050;-79
2022/11/07 12:08:57;;;;;;;11.00;5.45;;;14.00;92.70;;;;;;5133066;27;20049;-80
2022/11/07 12:12:00;;;;;;;11.63;5.93;;;14.10;92.30;;;;;;5133125;27;20514;-80
2022/11/07 12:15:03;;;;;;;15.27;5.50;;;14.20;91.30;;;;;;5133197;27;20050;-79
2022/11/07 12:17:44;;;;;;;14.27;5.05;;;14.50;91.90;;;;;;5114610;27;20107;-82
2022/11/07 12:20:26;;;;;;;9.98;5.28;;;14.50;91.20;;;;;;5115882;27;20482;-79
2022/11/07 12:23:28;;;;;;;12.55;4.45;;;14.50;89.90;;;;;;5132803;27;20093;-81
2022/11/07 12:26:10;;;;;;;18.45;5.95;;;14.40;90.60;;;;;;5132786;27;20043;-79
2022/11/07 12:28:51;;;;;;;10.48;5.40;;;14.10;90.50;;;;;;5132835;27;20516;-81
2022/11/07 12:31:46;;;;;;;10.50;4.88;;;14.10;91.30;;;;;;5133114;27;20123;-80
2022/11/07 12:34:30;;;;;;;13.65;7.95;;;14.10;91.00;;;;;;5114441;28;20123;-82
2022/11/07 12:37:16;;;;;;;11.10;4.55;;;14.00;91.30;;;;;;5132858;27;20376;-78
2022/11/07 12:40:01;;;;;;;13.27;4.28;;;14.00;91.60;;;;;;5132863;27;20047;-79
2022/11/07 12:42:43;;;;;;;11.10;4.43;;;13.90;91.50;;;;;;5133104;28;20043;-80
2022/11/07 12:45:16;;;;;;;17.13;4.15;;;13.70;91.70;;;;;;5132777;28;20080;-78
2022/11/07 12:48:14;;;;;;;11.33;4.37;;;13.70;91.80;;;;;;5115579;28;20047;-81
2022/11/07 12:50:45;;;;;;;11.18;4.28;;;13.70;91.70;;;;;;5114778;28;20383;-82
2022/11/07 12:53:16;;;;;;;10.20;4.47;;;13.60;92.00;;;;;;5132802;28;20045;-79
2022/11/07 12:55:47;;;;;;;15.10;5.07;;;13.50;92.20;;;;;;5132822;28;20119;-78
2022/11/07 12:58:36;;;;;;;11.50;5.20;;;13.40;92.50;;;;;;5132722;28;20039;-81
2022/11/07 13:01:03;;;;;;;15.15;5.53;;;13.50;92.40;;;;;;5115518;28;20044;-78
2022/11/07 13:03:56;;;;;;;12.75;4.93;;;13.40;92.80;;;;;;5115607;28;20039;-79